sensor_id;sensor_type;location;lat;lon;timestamp;P1;durP1;ratioP1;P2;durP2;ratioP2
76978;SDS011;65911;47.502;19.148;2022-12-29T00:00:48;10.25;;;6.45;;
76978;SDS011;65911;47.502;19.148;2022-12-29T00:03:50;9.80;;;6.23;;
76978;SDS011;65911;47.502;19.148;2022-12-29T00:06:52;10.13;;;6.10;;
76978;SDS011;65911;47.502;19.148;2022-12-29T00:09:56;9.10;;;5.95;;
76978;SDS011;65911;47.502;19.148;2022-12-29T00:12:58;10.27;;;6.38;;
76978;SDS011;65911;47.502;19.148;2022-12-29T00:16:19;10.23;;;5.90;;
76978;SDS011;65911;47.502;19.148;2022-12-29T00:19:21;10.18;;;6.07;;
76978;SDS011;65911;47.502;19.148;2022-12-29T00:22:42;9.57;;;6.03;;
76978;SDS011;65911;47.502;19.148;2022-12-29T00:26:03;9.93;;;5.93;;
76978;SDS011;65911;47.502;19.148;2022-12-29T00:29:24;10.18;;;6.00;;
76978;SDS011;65911;47.502;19.148;2022-12-29T00:32:55;12.18;;;5.95;;
76978;SDS011;65911;47.502;19.148;2022-12-29T00:39:25;10.73;;;5.43;;
76978;SDS011;65911;47.502;19.148;2022-12-29T00:42:46;9.90;;;5.65;;
76978;SDS011;65911;47.502;19.148;2022-12-29T00:46:06;12.70;;;8.70;;
76978;SDS011;65911;47.502;19.148;2022-12-29T00:49:10;11.13;;;6.40;;
76978;SDS011;65911;47.502;19.148;2022-12-29T00:52:32;9.32;;;5.78;;
76978;SDS011;65911;47.502;19.148;2022-12-29T00:55:36;8.73;;;5.93;;
76978;SDS011;65911;47.502;19.148;2022-12-29T00:58:39;9.07;;;5.10;;
76978;SDS011;65911;47.502;19.148;2022-12-29T01:01:43;8.77;;;6.25;;
76978;SDS011;65911;47.502;19.148;2022-12-29T01:04:46;9.55;;;5.60;;
76978;SDS011;65911;47.502;19.148;2022-12-29T01:07:50;8.30;;;5.70;;
76978;SDS011;65911;47.502;19.148;2022-12-29T01:11:09;10.02;;;6.15;;
76978;SDS011;65911;47.502;19.148;2022-12-29T01:14:13;7.75;;;5.22;;
76978;SDS011;65911;47.502;19.148;2022-12-29T01:17:15;9.73;;;6.15;;
76978;SDS011;65911;47.502;19.148;2022-12-29T01:20:18;8.85;;;5.32;;
76978;SDS011;65911;47.502;19.148;2022-12-29T01:23:21;9.80;;;5.53;;
76978;SDS011;65911;47.502;19.148;2022-12-29T01:26:23;8.02;;;5.53;;
76978;SDS011;65911;47.502;19.148;2022-12-29T01:29:26;9.57;;;5.40;;
76978;SDS011;65911;47.502;19.148;2022-12-29T01:32:31;10.02;;;5.95;;
76978;SDS011;65911;47.502;19.148;2022-12-29T01:35:33;9.00;;;5.45;;
76978;SDS011;65911;47.502;19.148;2022-12-29T01:38:36;9.03;;;5.90;;
76978;SDS011;65911;47.502;19.148;2022-12-29T01:41:39;10.50;;;5.47;;
76978;SDS011;65911;47.502;19.148;2022-12-29T01:47:53;10.27;;;5.75;;
76978;SDS011;65911;47.502;19.148;2022-12-29T01:51:00;8.90;;;5.25;;
76978;SDS011;65911;47.502;19.148;2022-12-29T01:54:03;8.65;;;5.40;;
76978;SDS011;65911;47.502;19.148;2022-12-29T01:57:10;8.18;;;5.55;;
76978;SDS011;65911;47.502;19.148;2022-12-29T02:00:15;8.43;;;4.97;;
76978;SDS011;65911;47.502;19.148;2022-12-29T02:03:21;8.45;;;5.63;;
76978;SDS011;65911;47.502;19.148;2022-12-29T02:06:29;9.88;;;5.10;;
76978;SDS011;65911;47.502;19.148;2022-12-29T02:09:35;8.43;;;5.47;;
76978;SDS011;65911;47.502;19.148;2022-12-29T02:12:37;8.68;;;5.22;;
76978;SDS011;65911;47.502;19.148;2022-12-29T02:22:50;8.57;;;5.03;;
76978;SDS011;65911;47.502;19.148;2022-12-29T02:29:56;9.00;;;5.57;;
76978;SDS011;65911;47.502;19.148;2022-12-29T02:33:04;7.30;;;4.80;;
76978;SDS011;65911;47.502;19.148;2022-12-29T02:36:10;9.45;;;5.20;;
76978;SDS011;65911;47.502;19.148;2022-12-29T02:39:23;8.38;;;5.30;;
76978;SDS011;65911;47.502;19.148;2022-12-29T02:42:47;7.23;;;5.23;;
76978;SDS011;65911;47.502;19.148;2022-12-29T02:45:59;8.02;;;5.40;;
76978;SDS011;65911;47.502;19.148;2022-12-29T02:49:10;8.80;;;5.20;;
76978;SDS011;65911;47.502;19.148;2022-12-29T02:52:18;7.95;;;5.25;;
76978;SDS011;65911;47.502;19.148;2022-12-29T02:55:24;8.52;;;5.50;;
76978;SDS011;65911;47.502;19.148;2022-12-29T02:58:26;9.32;;;5.22;;
76978;SDS011;65911;47.502;19.148;2022-12-29T03:11:46;7.68;;;4.82;;
76978;SDS011;65911;47.502;19.148;2022-12-29T03:15:12;7.90;;;4.37;;
76978;SDS011;65911;47.502;19.148;2022-12-29T03:21:55;10.45;;;5.40;;
76978;SDS011;65911;47.502;19.148;2022-12-29T03:25:26;9.30;;;5.22;;
76978;SDS011;65911;47.502;19.148;2022-12-29T03:28:36;9.35;;;4.75;;
76978;SDS011;65911;47.502;19.148;2022-12-29T03:31:40;9.52;;;5.82;;
76978;SDS011;65911;47.502;19.148;2022-12-29T03:34:43;7.85;;;5.22;;
76978;SDS011;65911;47.502;19.148;2022-12-29T03:37:50;8.50;;;5.53;;
76978;SDS011;65911;47.502;19.148;2022-12-29T03:40:58;9.50;;;5.72;;
76978;SDS011;65911;47.502;19.148;2022-12-29T03:44:07;9.30;;;5.13;;
76978;SDS011;65911;47.502;19.148;2022-12-29T03:47:11;9.63;;;5.63;;
76978;SDS011;65911;47.502;19.148;2022-12-29T03:50:15;7.80;;;4.78;;
76978;SDS011;65911;47.502;19.148;2022-12-29T03:53:19;11.20;;;5.68;;
76978;SDS011;65911;47.502;19.148;2022-12-29T03:56:21;10.80;;;5.38;;
76978;SDS011;65911;47.502;19.148;2022-12-29T03:59:25;11.98;;;5.45;;
76978;SDS011;65911;47.502;19.148;2022-12-29T04:02:27;10.30;;;5.78;;
76978;SDS011;65911;47.502;19.148;2022-12-29T04:05:29;7.97;;;5.13;;
76978;SDS011;65911;47.502;19.148;2022-12-29T04:08:33;8.53;;;5.67;;
76978;SDS011;65911;47.502;19.148;2022-12-29T04:11:36;10.02;;;5.75;;
76978;SDS011;65911;47.502;19.148;2022-12-29T04:14:38;8.82;;;5.65;;
76978;SDS011;65911;47.502;19.148;2022-12-29T04:17:40;9.20;;;5.57;;
76978;SDS011;65911;47.502;19.148;2022-12-29T04:20:43;9.20;;;6.10;;
76978;SDS011;65911;47.502;19.148;2022-12-29T04:24:02;9.57;;;5.05;;
76978;SDS011;65911;47.502;19.148;2022-12-29T04:27:12;11.60;;;5.55;;
76978;SDS011;65911;47.502;19.148;2022-12-29T04:30:29;10.55;;;5.53;;
76978;SDS011;65911;47.502;19.148;2022-12-29T04:33:40;9.05;;;5.78;;
76978;SDS011;65911;47.502;19.148;2022-12-29T04:36:42;11.00;;;5.65;;
76978;SDS011;65911;47.502;19.148;2022-12-29T04:39:44;8.83;;;5.67;;
76978;SDS011;65911;47.502;19.148;2022-12-29T04:42:46;11.13;;;5.82;;
76978;SDS011;65911;47.502;19.148;2022-12-29T04:45:49;9.93;;;5.43;;
76978;SDS011;65911;47.502;19.148;2022-12-29T04:49:06;10.43;;;5.40;;
76978;SDS011;65911;47.502;19.148;2022-12-29T04:52:30;9.52;;;5.05;;
76978;SDS011;65911;47.502;19.148;2022-12-29T04:55:32;8.80;;;5.40;;
76978;SDS011;65911;47.502;19.148;2022-12-29T04:58:35;9.93;;;5.28;;
76978;SDS011;65911;47.502;19.148;2022-12-29T05:01:39;10.18;;;5.40;;
76978;SDS011;65911;47.502;19.148;2022-12-29T05:04:41;8.40;;;5.40;;
76978;SDS011;65911;47.502;19.148;2022-12-29T05:07:43;8.40;;;5.30;;
76978;SDS011;65911;47.502;19.148;2022-12-29T05:10:46;10.37;;;5.77;;
76978;SDS011;65911;47.502;19.148;2022-12-29T05:13:49;8.52;;;5.32;;
76978;SDS011;65911;47.502;19.148;2022-12-29T05:16:52;10.10;;;5.47;;
76978;SDS011;65911;47.502;19.148;2022-12-29T05:19:54;9.43;;;5.97;;
76978;SDS011;65911;47.502;19.148;2022-12-29T05:22:57;10.00;;;5.45;;
76978;SDS011;65911;47.502;19.148;2022-12-29T05:25:59;8.45;;;5.45;;
76978;SDS011;65911;47.502;19.148;2022-12-29T05:29:21;9.45;;;5.63;;
76978;SDS011;65911;47.502;19.148;2022-12-29T05:32:23;9.82;;;6.47;;
76978;SDS011;65911;47.502;19.148;2022-12-29T05:35:28;9.77;;;5.65;;
76978;SDS011;65911;47.502;19.148;2022-12-29T05:38:31;8.82;;;5.10;;
76978;SDS011;65911;47.502;19.148;2022-12-29T05:41:33;8.83;;;5.10;;
76978;SDS011;65911;47.502;19.148;2022-12-29T05:44:54;8.98;;;5.60;;
76978;SDS011;65911;47.502;19.148;2022-12-29T05:48:29;9.80;;;5.78;;
76978;SDS011;65911;47.502;19.148;2022-12-29T05:51:47;8.83;;;5.80;;
76978;SDS011;65911;47.502;19.148;2022-12-29T05:54:50;9.27;;;5.35;;
76978;SDS011;65911;47.502;19.148;2022-12-29T05:57:56;9.70;;;5.50;;
76978;SDS011;65911;47.502;19.148;2022-12-29T06:00:59;8.73;;;5.47;;
76978;SDS011;65911;47.502;19.148;2022-12-29T06:04:16;8.88;;;5.45;;
76978;SDS011;65911;47.502;19.148;2022-12-29T06:07:18;10.68;;;5.63;;
76978;SDS011;65911;47.502;19.148;2022-12-29T06:10:22;9.93;;;5.85;;
76978;SDS011;65911;47.502;19.148;2022-12-29T06:13:38;10.40;;;5.60;;
76978;SDS011;65911;47.502;19.148;2022-12-29T06:16:40;10.20;;;5.55;;
76978;SDS011;65911;47.502;19.148;2022-12-29T06:19:46;8.18;;;5.28;;
76978;SDS011;65911;47.502;19.148;2022-12-29T06:22:48;8.63;;;5.60;;
76978;SDS011;65911;47.502;19.148;2022-12-29T06:25:52;9.23;;;5.88;;
76978;SDS011;65911;47.502;19.148;2022-12-29T06:28:54;10.00;;;6.07;;
76978;SDS011;65911;47.502;19.148;2022-12-29T06:31:56;9.57;;;5.72;;
76978;SDS011;65911;47.502;19.148;2022-12-29T06:35:01;11.35;;;5.57;;
76978;SDS011;65911;47.502;19.148;2022-12-29T06:38:04;9.00;;;5.80;;
76978;SDS011;65911;47.502;19.148;2022-12-29T06:41:07;9.65;;;6.40;;
76978;SDS011;65911;47.502;19.148;2022-12-29T06:44:30;8.20;;;4.90;;
76978;SDS011;65911;47.502;19.148;2022-12-29T06:47:35;9.05;;;5.70;;
76978;SDS011;65911;47.502;19.148;2022-12-29T06:50:37;8.82;;;5.65;;
76978;SDS011;65911;47.502;19.148;2022-12-29T06:53:40;10.33;;;5.73;;
76978;SDS011;65911;47.502;19.148;2022-12-29T06:56:42;9.90;;;5.78;;
76978;SDS011;65911;47.502;19.148;2022-12-29T06:59:44;8.30;;;5.75;;
76978;SDS011;65911;47.502;19.148;2022-12-29T07:02:46;9.48;;;6.00;;
76978;SDS011;65911;47.502;19.148;2022-12-29T07:05:49;9.60;;;5.40;;
76978;SDS011;65911;47.502;19.148;2022-12-29T07:08:51;8.73;;;5.38;;
76978;SDS011;65911;47.502;19.148;2022-12-29T07:12:00;10.60;;;5.38;;
76978;SDS011;65911;47.502;19.148;2022-12-29T07:15:02;9.47;;;5.37;;
76978;SDS011;65911;47.502;19.148;2022-12-29T07:18:05;9.80;;;5.95;;
76978;SDS011;65911;47.502;19.148;2022-12-29T07:21:07;9.25;;;5.95;;
76978;SDS011;65911;47.502;19.148;2022-12-29T07:24:09;8.27;;;5.37;;
76978;SDS011;65911;47.502;19.148;2022-12-29T07:27:11;8.60;;;5.72;;
76978;SDS011;65911;47.502;19.148;2022-12-29T07:30:13;10.77;;;6.78;;
76978;SDS011;65911;47.502;19.148;2022-12-29T07:33:16;8.98;;;5.45;;
76978;SDS011;65911;47.502;19.148;2022-12-29T07:36:18;9.70;;;6.03;;
76978;SDS011;65911;47.502;19.148;2022-12-29T07:39:20;9.05;;;6.10;;
76978;SDS011;65911;47.502;19.148;2022-12-29T07:42:22;8.52;;;5.93;;
76978;SDS011;65911;47.502;19.148;2022-12-29T07:45:26;9.17;;;5.37;;
76978;SDS011;65911;47.502;19.148;2022-12-29T07:48:37;8.93;;;5.13;;
76978;SDS011;65911;47.502;19.148;2022-12-29T07:51:39;8.65;;;5.60;;
76978;SDS011;65911;47.502;19.148;2022-12-29T07:54:42;8.37;;;5.57;;
76978;SDS011;65911;47.502;19.148;2022-12-29T07:57:44;8.88;;;5.90;;
76978;SDS011;65911;47.502;19.148;2022-12-29T08:00:46;8.43;;;5.95;;
76978;SDS011;65911;47.502;19.148;2022-12-29T08:03:48;9.23;;;6.43;;
76978;SDS011;65911;47.502;19.148;2022-12-29T08:06:58;8.43;;;5.90;;
76978;SDS011;65911;47.502;19.148;2022-12-29T08:10:00;8.68;;;6.10;;
76978;SDS011;65911;47.502;19.148;2022-12-29T08:13:05;8.07;;;5.90;;
76978;SDS011;65911;47.502;19.148;2022-12-29T08:16:08;9.20;;;6.00;;
76978;SDS011;65911;47.502;19.148;2022-12-29T08:19:10;9.23;;;5.82;;
76978;SDS011;65911;47.502;19.148;2022-12-29T08:22:14;7.53;;;5.80;;
76978;SDS011;65911;47.502;19.148;2022-12-29T08:25:17;9.13;;;6.00;;
76978;SDS011;65911;47.502;19.148;2022-12-29T08:28:21;8.77;;;6.05;;
76978;SDS011;65911;47.502;19.148;2022-12-29T08:31:24;9.55;;;5.95;;
76978;SDS011;65911;47.502;19.148;2022-12-29T08:34:26;10.00;;;6.50;;
76978;SDS011;65911;47.502;19.148;2022-12-29T08:37:28;8.88;;;5.97;;
76978;SDS011;65911;47.502;19.148;2022-12-29T08:40:32;10.77;;;6.07;;
76978;SDS011;65911;47.502;19.148;2022-12-29T08:43:34;10.60;;;5.93;;
76978;SDS011;65911;47.502;19.148;2022-12-29T08:46:36;10.30;;;6.60;;
76978;SDS011;65911;47.502;19.148;2022-12-29T08:49:39;8.27;;;6.38;;
76978;SDS011;65911;47.502;19.148;2022-12-29T08:52:41;9.75;;;6.45;;
76978;SDS011;65911;47.502;19.148;2022-12-29T08:55:46;10.03;;;6.40;;
76978;SDS011;65911;47.502;19.148;2022-12-29T08:58:50;8.68;;;6.15;;
76978;SDS011;65911;47.502;19.148;2022-12-29T09:01:53;8.43;;;5.85;;
76978;SDS011;65911;47.502;19.148;2022-12-29T09:04:56;10.25;;;7.00;;
76978;SDS011;65911;47.502;19.148;2022-12-29T09:07:59;9.93;;;6.30;;
76978;SDS011;65911;47.502;19.148;2022-12-29T09:11:11;9.73;;;6.55;;
76978;SDS011;65911;47.502;19.148;2022-12-29T09:18:44;14.90;;;8.55;;
76978;SDS011;65911;47.502;19.148;2022-12-29T09:21:46;14.20;;;9.43;;
76978;SDS011;65911;47.502;19.148;2022-12-29T09:24:49;15.07;;;10.02;;
76978;SDS011;65911;47.502;19.148;2022-12-29T09:27:51;13.53;;;8.77;;
76978;SDS011;65911;47.502;19.148;2022-12-29T09:30:57;15.02;;;8.45;;
76978;SDS011;65911;47.502;19.148;2022-12-29T09:34:00;15.98;;;9.73;;
76978;SDS011;65911;47.502;19.148;2022-12-29T09:37:02;12.87;;;8.73;;
76978;SDS011;65911;47.502;19.148;2022-12-29T09:40:05;14.93;;;8.98;;
76978;SDS011;65911;47.502;19.148;2022-12-29T09:43:15;14.45;;;9.35;;
76978;SDS011;65911;47.502;19.148;2022-12-29T09:46:25;15.00;;;9.48;;
76978;SDS011;65911;47.502;19.148;2022-12-29T09:56:13;18.48;;;9.50;;
76978;SDS011;65911;47.502;19.148;2022-12-29T09:59:19;16.93;;;9.00;;
76978;SDS011;65911;47.502;19.148;2022-12-29T10:02:31;16.92;;;9.88;;
76978;SDS011;65911;47.502;19.148;2022-12-29T10:16:02;13.68;;;9.55;;
76978;SDS011;65911;47.502;19.148;2022-12-29T10:19:13;16.90;;;9.85;;
76978;SDS011;65911;47.502;19.148;2022-12-29T10:25:37;17.20;;;10.00;;
76978;SDS011;65911;47.502;19.148;2022-12-29T10:28:42;17.20;;;9.85;;
76978;SDS011;65911;47.502;19.148;2022-12-29T10:32:05;14.80;;;9.30;;
76978;SDS011;65911;47.502;19.148;2022-12-29T10:35:25;16.77;;;9.55;;
76978;SDS011;65911;47.502;19.148;2022-12-29T10:38:35;17.85;;;10.00;;
76978;SDS011;65911;47.502;19.148;2022-12-29T10:41:51;13.40;;;9.53;;
76978;SDS011;65911;47.502;19.148;2022-12-29T10:44:58;14.18;;;9.20;;
76978;SDS011;65911;47.502;19.148;2022-12-29T10:48:05;17.92;;;10.00;;
76978;SDS011;65911;47.502;19.148;2022-12-29T10:51:30;15.35;;;9.65;;
76978;SDS011;65911;47.502;19.148;2022-12-29T10:54:38;17.67;;;10.43;;
76978;SDS011;65911;47.502;19.148;2022-12-29T10:57:43;16.75;;;10.23;;
76978;SDS011;65911;47.502;19.148;2022-12-29T11:00:50;16.35;;;10.68;;
76978;SDS011;65911;47.502;19.148;2022-12-29T11:07:03;18.15;;;10.90;;
76978;SDS011;65911;47.502;19.148;2022-12-29T11:13:35;15.60;;;10.50;;
76978;SDS011;65911;47.502;19.148;2022-12-29T11:17:14;21.10;;;11.45;;
76978;SDS011;65911;47.502;19.148;2022-12-29T11:20:31;16.95;;;11.00;;
76978;SDS011;65911;47.502;19.148;2022-12-29T11:23:40;19.65;;;12.07;;
76978;SDS011;65911;47.502;19.148;2022-12-29T11:26:43;18.40;;;11.15;;
76978;SDS011;65911;47.502;19.148;2022-12-29T11:29:46;18.05;;;11.18;;
76978;SDS011;65911;47.502;19.148;2022-12-29T11:32:52;20.25;;;11.55;;
76978;SDS011;65911;47.502;19.148;2022-12-29T11:35:58;16.63;;;11.23;;
76978;SDS011;65911;47.502;19.148;2022-12-29T11:39:04;16.90;;;11.45;;
76978;SDS011;65911;47.502;19.148;2022-12-29T11:42:18;16.33;;;10.40;;
76978;SDS011;65911;47.502;19.148;2022-12-29T11:45:28;17.90;;;10.83;;
76978;SDS011;65911;47.502;19.148;2022-12-29T11:48:38;16.30;;;11.18;;
76978;SDS011;65911;47.502;19.148;2022-12-29T11:51:45;17.88;;;11.05;;
76978;SDS011;65911;47.502;19.148;2022-12-29T11:54:48;16.90;;;10.98;;
76978;SDS011;65911;47.502;19.148;2022-12-29T11:57:51;16.77;;;10.88;;
76978;SDS011;65911;47.502;19.148;2022-12-29T12:00:55;17.45;;;11.07;;
76978;SDS011;65911;47.502;19.148;2022-12-29T12:04:02;17.50;;;11.57;;
76978;SDS011;65911;47.502;19.148;2022-12-29T12:07:15;18.90;;;10.87;;
76978;SDS011;65911;47.502;19.148;2022-12-29T12:10:23;20.00;;;11.82;;
76978;SDS011;65911;47.502;19.148;2022-12-29T12:13:31;16.92;;;10.98;;
76978;SDS011;65911;47.502;19.148;2022-12-29T12:16:49;19.10;;;11.77;;
76978;SDS011;65911;47.502;19.148;2022-12-29T12:19:56;17.88;;;11.05;;
76978;SDS011;65911;47.502;19.148;2022-12-29T12:26:21;19.15;;;10.90;;
76978;SDS011;65911;47.502;19.148;2022-12-29T12:30:13;18.20;;;11.48;;
76978;SDS011;65911;47.502;19.148;2022-12-29T12:39:23;17.63;;;11.17;;
76978;SDS011;65911;47.502;19.148;2022-12-29T12:42:35;15.90;;;11.05;;
76978;SDS011;65911;47.502;19.148;2022-12-29T12:45:56;16.95;;;10.95;;
76978;SDS011;65911;47.502;19.148;2022-12-29T13:00:00;15.40;;;10.50;;
76978;SDS011;65911;47.502;19.148;2022-12-29T13:02:44;16.77;;;10.57;;
76978;SDS011;65911;47.502;19.148;2022-12-29T13:09:32;16.58;;;11.77;;
76978;SDS011;65911;47.502;19.148;2022-12-29T13:16:47;17.23;;;10.73;;
76978;SDS011;65911;47.502;19.148;2022-12-29T13:23:41;14.47;;;10.10;;
76978;SDS011;65911;47.502;19.148;2022-12-29T13:26:47;15.23;;;10.27;;
76978;SDS011;65911;47.502;19.148;2022-12-29T13:33:27;18.08;;;10.30;;
76978;SDS011;65911;47.502;19.148;2022-12-29T13:36:44;16.50;;;10.68;;
76978;SDS011;65911;47.502;19.148;2022-12-29T13:39:52;16.05;;;11.20;;
76978;SDS011;65911;47.502;19.148;2022-12-29T13:42:57;16.67;;;10.45;;
76978;SDS011;65911;47.502;19.148;2022-12-29T13:46:02;15.50;;;10.73;;
76978;SDS011;65911;47.502;19.148;2022-12-29T13:49:20;15.45;;;10.65;;
76978;SDS011;65911;47.502;19.148;2022-12-29T13:52:29;17.58;;;10.93;;
76978;SDS011;65911;47.502;19.148;2022-12-29T13:56:16;17.80;;;11.00;;
76978;SDS011;65911;47.502;19.148;2022-12-29T14:06:14;15.38;;;10.90;;
76978;SDS011;65911;47.502;19.148;2022-12-29T14:12:40;16.27;;;11.00;;
76978;SDS011;65911;47.502;19.148;2022-12-29T14:15:45;18.83;;;11.60;;
76978;SDS011;65911;47.502;19.148;2022-12-29T14:18:52;16.67;;;10.80;;
76978;SDS011;65911;47.502;19.148;2022-12-29T14:22:02;15.38;;;11.30;;
76978;SDS011;65911;47.502;19.148;2022-12-29T14:25:05;16.80;;;11.65;;
76978;SDS011;65911;47.502;19.148;2022-12-29T14:28:16;17.13;;;11.67;;
76978;SDS011;65911;47.502;19.148;2022-12-29T14:34:30;17.42;;;11.63;;
76978;SDS011;65911;47.502;19.148;2022-12-29T14:37:33;16.25;;;11.07;;
76978;SDS011;65911;47.502;19.148;2022-12-29T14:40:37;17.25;;;12.05;;
76978;SDS011;65911;47.502;19.148;2022-12-29T14:43:39;17.20;;;11.20;;
76978;SDS011;65911;47.502;19.148;2022-12-29T14:56:43;18.75;;;11.48;;
76978;SDS011;65911;47.502;19.148;2022-12-29T14:59:46;16.93;;;11.90;;
76978;SDS011;65911;47.502;19.148;2022-12-29T15:06:38;18.10;;;12.10;;
76978;SDS011;65911;47.502;19.148;2022-12-29T15:13:14;18.27;;;12.57;;
76978;SDS011;65911;47.502;19.148;2022-12-29T15:16:23;20.73;;;12.88;;
76978;SDS011;65911;47.502;19.148;2022-12-29T15:19:31;18.40;;;12.60;;
76978;SDS011;65911;47.502;19.148;2022-12-29T15:22:33;16.77;;;12.40;;
76978;SDS011;65911;47.502;19.148;2022-12-29T15:25:35;19.45;;;12.73;;
76978;SDS011;65911;47.502;19.148;2022-12-29T15:28:39;17.20;;;12.13;;
76978;SDS011;65911;47.502;19.148;2022-12-29T15:31:47;18.43;;;12.40;;
76978;SDS011;65911;47.502;19.148;2022-12-29T15:34:51;18.55;;;12.23;;
76978;SDS011;65911;47.502;19.148;2022-12-29T15:37:55;17.98;;;12.70;;
76978;SDS011;65911;47.502;19.148;2022-12-29T15:40:59;19.17;;;12.75;;
76978;SDS011;65911;47.502;19.148;2022-12-29T15:44:10;18.02;;;12.50;;
76978;SDS011;65911;47.502;19.148;2022-12-29T15:47:22;19.08;;;13.65;;
76978;SDS011;65911;47.502;19.148;2022-12-29T15:50:31;21.38;;;13.95;;
76978;SDS011;65911;47.502;19.148;2022-12-29T15:53:34;19.80;;;12.93;;
76978;SDS011;65911;47.502;19.148;2022-12-29T15:56:37;19.67;;;12.82;;
76978;SDS011;65911;47.502;19.148;2022-12-29T15:59:45;20.65;;;13.45;;
76978;SDS011;65911;47.502;19.148;2022-12-29T16:02:47;21.60;;;14.10;;
76978;SDS011;65911;47.502;19.148;2022-12-29T16:05:58;19.02;;;13.30;;
76978;SDS011;65911;47.502;19.148;2022-12-29T16:09:15;21.20;;;14.02;;
76978;SDS011;65911;47.502;19.148;2022-12-29T16:12:19;22.48;;;14.43;;
76978;SDS011;65911;47.502;19.148;2022-12-29T16:15:23;22.80;;;14.60;;
76978;SDS011;65911;47.502;19.148;2022-12-29T16:18:33;20.73;;;13.93;;
76978;SDS011;65911;47.502;19.148;2022-12-29T16:21:37;21.50;;;14.70;;
76978;SDS011;65911;47.502;19.148;2022-12-29T16:24:39;20.07;;;13.67;;
76978;SDS011;65911;47.502;19.148;2022-12-29T16:27:42;18.95;;;13.82;;
76978;SDS011;65911;47.502;19.148;2022-12-29T16:30:45;19.58;;;13.73;;
76978;SDS011;65911;47.502;19.148;2022-12-29T16:33:48;21.83;;;14.50;;
76978;SDS011;65911;47.502;19.148;2022-12-29T16:40:30;22.85;;;15.00;;
76978;SDS011;65911;47.502;19.148;2022-12-29T16:43:34;21.42;;;14.45;;
76978;SDS011;65911;47.502;19.148;2022-12-29T16:46:44;24.38;;;15.77;;
76978;SDS011;65911;47.502;19.148;2022-12-29T16:50:15;24.05;;;15.13;;
76978;SDS011;65911;47.502;19.148;2022-12-29T16:56:36;21.07;;;14.77;;
76978;SDS011;65911;47.502;19.148;2022-12-29T16:59:40;22.63;;;15.35;;
76978;SDS011;65911;47.502;19.148;2022-12-29T17:02:45;23.80;;;15.43;;
76978;SDS011;65911;47.502;19.148;2022-12-29T17:05:49;21.30;;;15.13;;
76978;SDS011;65911;47.502;19.148;2022-12-29T17:08:58;25.33;;;15.73;;
76978;SDS011;65911;47.502;19.148;2022-12-29T17:12:00;23.80;;;15.27;;
76978;SDS011;65911;47.502;19.148;2022-12-29T17:15:18;23.33;;;16.10;;
76978;SDS011;65911;47.502;19.148;2022-12-29T17:18:25;24.13;;;16.13;;
76978;SDS011;65911;47.502;19.148;2022-12-29T17:21:27;22.70;;;15.32;;
76978;SDS011;65911;47.502;19.148;2022-12-29T17:24:30;23.30;;;16.08;;
76978;SDS011;65911;47.502;19.148;2022-12-29T17:27:36;24.73;;;15.47;;
76978;SDS011;65911;47.502;19.148;2022-12-29T17:30:40;24.25;;;16.35;;
76978;SDS011;65911;47.502;19.148;2022-12-29T17:33:42;25.25;;;16.25;;
76978;SDS011;65911;47.502;19.148;2022-12-29T17:36:45;23.33;;;15.60;;
76978;SDS011;65911;47.502;19.148;2022-12-29T17:39:47;26.25;;;16.35;;
76978;SDS011;65911;47.502;19.148;2022-12-29T17:42:51;23.80;;;15.43;;
76978;SDS011;65911;47.502;19.148;2022-12-29T17:45:55;24.83;;;15.90;;
76978;SDS011;65911;47.502;19.148;2022-12-29T17:48:58;26.02;;;16.33;;
76978;SDS011;65911;47.502;19.148;2022-12-29T17:52:01;24.23;;;16.35;;
76978;SDS011;65911;47.502;19.148;2022-12-29T17:55:03;25.85;;;16.77;;
76978;SDS011;65911;47.502;19.148;2022-12-29T17:58:16;24.60;;;16.27;;
76978;SDS011;65911;47.502;19.148;2022-12-29T18:01:20;26.98;;;16.48;;
76978;SDS011;65911;47.502;19.148;2022-12-29T18:04:23;25.95;;;16.10;;
76978;SDS011;65911;47.502;19.148;2022-12-29T18:07:26;24.67;;;16.60;;
76978;SDS011;65911;47.502;19.148;2022-12-29T18:10:37;23.30;;;16.35;;
76978;SDS011;65911;47.502;19.148;2022-12-29T18:13:39;25.27;;;16.33;;
76978;SDS011;65911;47.502;19.148;2022-12-29T18:16:47;26.75;;;16.42;;
76978;SDS011;65911;47.502;19.148;2022-12-29T18:19:49;26.48;;;16.67;;
76978;SDS011;65911;47.502;19.148;2022-12-29T18:22:55;25.95;;;16.85;;
76978;SDS011;65911;47.502;19.148;2022-12-29T18:26:03;26.92;;;17.25;;
76978;SDS011;65911;47.502;19.148;2022-12-29T18:29:07;27.70;;;16.77;;
76978;SDS011;65911;47.502;19.148;2022-12-29T18:32:12;27.73;;;17.48;;
76978;SDS011;65911;47.502;19.148;2022-12-29T18:35:19;27.83;;;16.75;;
76978;SDS011;65911;47.502;19.148;2022-12-29T18:38:27;25.57;;;16.93;;
76978;SDS011;65911;47.502;19.148;2022-12-29T18:41:30;26.42;;;16.98;;
76978;SDS011;65911;47.502;19.148;2022-12-29T18:44:33;26.55;;;16.55;;
76978;SDS011;65911;47.502;19.148;2022-12-29T18:47:35;25.80;;;16.60;;
76978;SDS011;65911;47.502;19.148;2022-12-29T18:50:37;25.52;;;16.65;;
76978;SDS011;65911;47.502;19.148;2022-12-29T18:53:39;25.73;;;17.25;;
76978;SDS011;65911;47.502;19.148;2022-12-29T18:56:42;26.25;;;16.73;;
76978;SDS011;65911;47.502;19.148;2022-12-29T18:59:44;24.07;;;16.63;;
76978;SDS011;65911;47.502;19.148;2022-12-29T19:02:46;27.60;;;17.42;;
76978;SDS011;65911;47.502;19.148;2022-12-29T19:05:49;27.80;;;17.50;;
76978;SDS011;65911;47.502;19.148;2022-12-29T19:08:51;26.63;;;16.93;;
76978;SDS011;65911;47.502;19.148;2022-12-29T19:11:53;26.88;;;17.38;;
76978;SDS011;65911;47.502;19.148;2022-12-29T19:14:55;26.35;;;16.50;;
76978;SDS011;65911;47.502;19.148;2022-12-29T19:17:59;26.77;;;17.83;;
76978;SDS011;65911;47.502;19.148;2022-12-29T19:21:22;26.88;;;16.83;;
76978;SDS011;65911;47.502;19.148;2022-12-29T19:24:24;28.10;;;17.98;;
76978;SDS011;65911;47.502;19.148;2022-12-29T19:27:26;27.77;;;17.50;;
76978;SDS011;65911;47.502;19.148;2022-12-29T19:30:29;28.57;;;18.20;;
76978;SDS011;65911;47.502;19.148;2022-12-29T19:33:31;30.13;;;18.45;;
76978;SDS011;65911;47.502;19.148;2022-12-29T19:36:33;26.95;;;17.70;;
76978;SDS011;65911;47.502;19.148;2022-12-29T19:39:36;26.47;;;17.80;;
76978;SDS011;65911;47.502;19.148;2022-12-29T19:42:38;26.02;;;17.52;;
76978;SDS011;65911;47.502;19.148;2022-12-29T19:45:41;27.20;;;17.65;;
76978;SDS011;65911;47.502;19.148;2022-12-29T19:48:45;28.92;;;18.25;;
76978;SDS011;65911;47.502;19.148;2022-12-29T19:51:47;27.42;;;17.25;;
76978;SDS011;65911;47.502;19.148;2022-12-29T19:54:49;28.55;;;17.35;;
76978;SDS011;65911;47.502;19.148;2022-12-29T19:57:51;26.98;;;16.75;;
76978;SDS011;65911;47.502;19.148;2022-12-29T20:00:53;26.70;;;16.47;;
76978;SDS011;65911;47.502;19.148;2022-12-29T20:03:55;28.05;;;18.42;;
76978;SDS011;65911;47.502;19.148;2022-12-29T20:06:58;28.85;;;17.40;;
76978;SDS011;65911;47.502;19.148;2022-12-29T20:10:01;26.20;;;17.60;;
76978;SDS011;65911;47.502;19.148;2022-12-29T20:13:03;25.70;;;17.38;;
76978;SDS011;65911;47.502;19.148;2022-12-29T20:16:08;26.38;;;17.27;;
76978;SDS011;65911;47.502;19.148;2022-12-29T20:19:12;27.33;;;17.10;;
76978;SDS011;65911;47.502;19.148;2022-12-29T20:22:14;26.17;;;17.75;;
76978;SDS011;65911;47.502;19.148;2022-12-29T20:25:17;24.55;;;16.70;;